Time;durP1;ratioP1;P1;durP2;ratioP2;P2;SDS_P1;SDS_P2;PMS_P1;PMS_P2;Temp;Humidity;BMP_temperature;BMP_pressure;BME280_temperature;BME280_humidity;BME280_pressure;Samples;Min_cycle;Max_cycle;Signal;HPM_P1;HPM_P2
2023/06/06 00:01:58;;;;;;;5.40;4.82;;;17.50;41.50;;;;;;4977528;28;20112;-86
2023/06/06 00:04:25;;;;;;;4.57;4.28;;;17.40;41.40;;;;;;4985777;28;20041;-86
2023/06/06 00:06:54;;;;;;;4.70;4.30;;;17.30;41.40;;;;;;4978085;28;20137;-85
2023/06/06 00:09:26;;;;;;;4.93;4.28;;;17.30;41.50;;;;;;4975134;28;20034;-86
2023/06/06 00:11:54;;;;;;;4.50;4.10;;;17.30;41.60;;;;;;4982200;28;20088;-87
2023/06/06 00:14:22;;;;;;;4.50;4.10;;;17.20;41.40;;;;;;4980124;28;20046;-86
2023/06/06 00:16:49;;;;;;;4.32;3.92;;;17.20;41.60;;;;;;4980577;28;20542;-86
2023/06/06 00:19:16;;;;;;;7.40;5.10;;;17.20;41.60;;;;;;4981030;28;20141;-85
2023/06/06 00:21:42;;;;;;;4.43;4.03;;;17.10;41.50;;;;;;4979513;28;20033;-86
2023/06/06 00:24:11;;;;;;;5.55;4.93;;;17.10;41.60;;;;;;4981925;28;20026;-86
2023/06/06 00:26:37;;;;;;;4.25;3.92;;;17.10;41.70;;;;;;4981448;28;20129;-85
2023/06/06 00:29:04;;;;;;;6.10;4.57;;;17.10;41.80;;;;;;4971626;28;20031;-85
2023/06/06 00:31:30;;;;;;;5.78;4.65;;;17.00;41.60;;;;;;4977741;28;20033;-85
2023/06/06 00:33:57;;;;;;;5.15;4.75;;;17.00;41.70;;;;;;4971599;28;20055;-83
2023/06/06 00:36:26;;;;;;;4.55;4.13;;;17.00;41.80;;;;;;4978003;28;20053;-83
2023/06/06 00:39:02;;;;;;;5.88;4.07;;;16.90;41.60;;;;;;4968021;28;20034;-84
2023/06/06 00:41:28;;;;;;;4.63;4.15;;;16.90;41.70;;;;;;4974831;28;20042;-85
2023/06/06 00:43:54;;;;;;;4.93;4.43;;;16.90;41.90;;;;;;4978740;28;20034;-86
2023/06/06 00:46:20;;;;;;;4.60;4.13;;;16.90;41.90;;;;;;4962941;28;20520;-84
2023/06/06 00:48:51;;;;;;;5.82;3.83;;;16.80;41.70;;;;;;4979749;28;20042;-85
2023/06/06 00:51:25;;;;;;;4.95;4.35;;;16.80;41.80;;;;;;4970109;28;20525;-84
2023/06/06 00:53:53;;;;;;;4.95;4.28;;;16.80;41.90;;;;;;4974816;28;20304;-84
2023/06/06 00:56:28;;;;;;;4.30;3.90;;;16.70;41.80;;;;;;4974604;28;20401;-85
2023/06/06 00:58:57;;;;;;;5.80;4.00;;;16.70;41.90;;;;;;4972749;28;20042;-84
2023/06/06 01:01:33;;;;;;;6.03;4.25;;;16.60;41.70;;;;;;4976407;28;20054;-84
2023/06/06 01:04:09;;;;;;;4.35;3.95;;;16.60;41.80;;;;;;4973096;28;20070;-85
2023/06/06 01:06:37;;;;;;;5.03;4.50;;;16.60;42.00;;;;;;4977174;28;20566;-84
2023/06/06 01:09:06;;;;;;;4.60;4.20;;;16.50;41.80;;;;;;4979339;28;20018;-85
2023/06/06 01:11:54;;;;;;;7.60;4.85;;;16.50;42.50;;;;;;4973617;28;20042;-85
2023/06/06 01:14:34;;;;;;;6.07;4.47;;;16.40;41.80;;;;;;4979190;28;20085;-86
2023/06/06 01:17:03;;;;;;;5.50;4.40;;;16.40;42.00;;;;;;4975902;28;20046;-85
2023/06/06 01:19:32;;;;;;;5.07;4.68;;;16.40;42.00;;;;;;4979242;28;20054;-86
2023/06/06 01:21:59;;;;;;;6.38;4.78;;;16.30;42.00;;;;;;4976680;28;20038;-85
2023/06/06 01:24:27;;;;;;;4.05;3.65;;;16.30;42.00;;;;;;4996728;28;20463;-85
2023/06/06 01:26:54;;;;;;;5.10;4.60;;;16.30;42.10;;;;;;4979588;28;20031;-85
2023/06/06 01:29:21;;;;;;;5.45;4.75;;;16.20;42.00;;;;;;4980472;28;20034;-85
2023/06/06 01:32:05;;;;;;;4.80;4.30;;;16.20;42.10;;;;;;4978904;28;20896;-85
2023/06/06 01:34:42;;;;;;;7.33;5.07;;;16.20;42.20;;;;;;4986719;28;20057;-85
2023/06/06 01:37:23;;;;;;;4.65;4.25;;;16.10;42.00;;;;;;4982103;28;20286;-85
2023/06/06 01:39:55;;;;;;;4.90;3.90;;;16.10;42.00;;;;;;4984503;28;20042;-84
2023/06/06 01:42:22;;;;;;;5.77;4.17;;;16.10;42.10;;;;;;4994511;28;20039;-85
2023/06/06 01:44:54;;;;;;;4.53;4.13;;;16.00;41.90;;;;;;4967593;28;20042;-84
2023/06/06 01:47:24;;;;;;;5.05;4.22;;;16.00;42.00;;;;;;4979233;28;20054;-84
2023/06/06 01:49:51;;;;;;;4.38;4.03;;;16.00;42.10;;;;;;4988808;28;20061;-84
2023/06/06 01:52:39;;;;;;;5.10;4.32;;;16.00;42.10;;;;;;4982623;28;20030;-84
2023/06/06 01:55:08;;;;;;;5.25;4.70;;;16.00;42.20;;;;;;4988347;28;20069;-85
2023/06/06 01:57:35;;;;;;;4.50;3.90;;;15.90;42.10;;;;;;4989643;28;20141;-84
2023/06/06 02:00:22;;;;;;;6.40;4.35;;;15.90;42.10;;;;;;4968716;28;20076;-83
2023/06/06 02:02:51;;;;;;;4.78;4.38;;;15.90;42.20;;;;;;4983903;28;20042;-83
2023/06/06 02:05:19;;;;;;;9.90;5.05;;;15.90;42.20;;;;;;4987897;28;20037;-84
2023/06/06 02:07:52;;;;;;;4.85;4.20;;;15.80;42.10;;;;;;4986438;28;20352;-83
2023/06/06 02:10:19;;;;;;;4.43;4.03;;;15.80;42.20;;;;;;5004110;28;20068;-86
2023/06/06 02:12:51;;;;;;;5.10;4.60;;;15.70;42.10;;;;;;4988519;28;20194;-86
2023/06/06 02:15:17;;;;;;;6.35;4.75;;;15.70;42.20;;;;;;4988527;28;20374;-86
2023/06/06 02:17:53;;;;;;;4.57;4.13;;;15.70;42.30;;;;;;4993110;28;20441;-87
2023/06/06 02:20:19;;;;;;;8.00;4.45;;;15.70;42.90;;;;;;4989474;28;20564;-86
2023/06/06 02:22:45;;;;;;;4.68;4.28;;;15.70;42.40;;;;;;5002219;28;20039;-86
2023/06/06 02:25:16;;;;;;;5.38;4.85;;;15.60;42.20;;;;;;4987953;28;20034;-86
2023/06/06 02:27:47;;;;;;;4.93;4.20;;;15.70;42.60;;;;;;4987501;28;20293;-87
2023/06/06 02:30:13;;;;;;;4.90;4.00;;;15.60;42.40;;;;;;4990762;28;20030;-85
2023/06/06 02:32:42;;;;;;;5.60;4.50;;;15.60;42.40;;;;;;4995547;28;20030;-85
2023/06/06 02:35:09;;;;;;;4.07;3.67;;;15.60;42.50;;;;;;4988731;28;20061;-85
2023/06/06 02:37:38;;;;;;;6.35;5.22;;;15.60;42.50;;;;;;4981017;28;20169;-83
2023/06/06 02:40:08;;;;;;;4.18;3.85;;;15.60;42.60;;;;;;4979503;28;20026;-83
2023/06/06 02:42:38;;;;;;;4.70;4.30;;;15.60;42.60;;;;;;4983997;28;20053;-83
2023/06/06 02:45:09;;;;;;;4.90;3.80;;;15.60;42.60;;;;;;4986289;28;20373;-84
2023/06/06 02:47:39;;;;;;;7.93;4.65;;;15.60;42.60;;;;;;4987799;28;20054;-83
2023/06/06 02:50:06;;;;;;;4.85;4.40;;;15.60;42.60;;;;;;4986063;28;20620;-83
2023/06/06 02:52:33;;;;;;;5.82;4.32;;;15.60;42.60;;;;;;5001526;28;20487;-84
2023/06/06 02:54:59;;;;;;;5.55;4.47;;;15.60;42.60;;;;;;4978340;28;20070;-84
2023/06/06 02:57:26;;;;;;;5.13;4.47;;;15.60;42.60;;;;;;4984880;28;20117;-84
2023/06/06 02:59:58;;;;;;;4.05;3.65;;;15.60;42.70;;;;;;4982936;28;20611;-85
2023/06/06 03:02:26;;;;;;;4.90;4.35;;;15.60;42.70;;;;;;4986902;28;20265;-85
2023/06/06 03:04:52;;;;;;;5.95;4.78;;;15.70;42.90;;;;;;4989469;28;20030;-84
2023/06/06 03:07:20;;;;;;;6.90;4.68;;;15.70;42.90;;;;;;4986529;28;20042;-85
2023/06/06 03:09:46;;;;;;;4.78;4.30;;;15.60;42.70;;;;;;4986261;28;20038;-85
2023/06/06 03:12:20;;;;;;;4.55;4.15;;;15.70;43.00;;;;;;4978008;28;20330;-85
2023/06/06 03:14:50;;;;;;;5.78;4.00;;;15.60;42.80;;;;;;4984986;28;20057;-86
2023/06/06 03:17:17;;;;;;;4.82;4.10;;;15.70;43.00;;;;;;4986301;28;20061;-85
2023/06/06 03:19:45;;;;;;;4.53;4.10;;;15.70;43.00;;;;;;4998373;28;20033;-85
2023/06/06 03:22:18;;;;;;;6.82;3.95;;;15.60;42.90;;;;;;4965643;28;20403;-88
2023/06/06 03:24:46;;;;;;;3.85;3.47;;;15.60;42.90;;;;;;4984757;28;20062;-86
2023/06/06 03:27:16;;;;;;;5.57;3.90;;;15.60;42.90;;;;;;4981349;28;20516;-84
2023/06/06 03:29:43;;;;;;;4.47;4.05;;;15.60;42.90;;;;;;4984897;28;20084;-85
2023/06/06 03:32:10;;;;;;;5.47;4.35;;;15.60;43.00;;;;;;5000369;28;20045;-85
2023/06/06 03:34:39;;;;;;;4.63;4.10;;;15.60;43.00;;;;;;4985101;28;20080;-85
2023/06/06 03:37:08;;;;;;;3.70;3.40;;;15.60;43.10;;;;;;4974162;28;20089;-84
2023/06/06 03:39:35;;;;;;;3.95;3.53;;;15.60;43.00;;;;;;4982564;28;20034;-85
2023/06/06 03:42:04;;;;;;;4.40;3.58;;;15.60;43.10;;;;;;4992440;28;20045;-86
2023/06/06 03:44:33;;;;;;;4.22;3.75;;;15.60;43.10;;;;;;4996483;28;20382;-86
2023/06/06 03:47:03;;;;;;;6.13;4.32;;;15.60;43.10;;;;;;4989657;28;20056;-85
2023/06/06 03:49:35;;;;;;;5.53;3.65;;;15.60;43.10;;;;;;4983765;28;20053;-84
2023/06/06 03:52:04;;;;;;;3.90;3.55;;;15.60;43.10;;;;;;4981351;28;20509;-83
2023/06/06 03:54:37;;;;;;;4.03;3.08;;;15.60;43.10;;;;;;4984963;28;20064;-84
2023/06/06 03:57:06;;;;;;;3.88;3.45;;;15.60;43.70;;;;;;4982994;28;20086;-84
2023/06/06 03:59:33;;;;;;;3.88;3.50;;;15.60;43.10;;;;;;4973897;28;20026;-84
2023/06/06 04:01:59;;;;;;;3.47;3.17;;;15.60;43.10;;;;;;4986159;28;20065;-85
2023/06/06 04:04:26;;;;;;;3.22;2.92;;;15.60;43.10;;;;;;4987342;28;20053;-85
2023/06/06 04:06:53;;;;;;;3.08;2.67;;;15.60;43.10;;;;;;4983443;28;20117;-85
2023/06/06 04:09:26;;;;;;;4.93;3.20;;;15.60;43.10;;;;;;4985521;28;20128;-83
2023/06/06 04:12:06;;;;;;;3.78;3.28;;;15.70;43.30;;;;;;4984814;28;20046;-83
2023/06/06 04:14:32;;;;;;;3.70;3.17;;;15.70;43.20;;;;;;4984582;28;20050;-82
2023/06/06 04:17:02;;;;;;;5.63;3.15;;;15.60;43.10;;;;;;4984717;28;20096;-83
2023/06/06 04:19:28;;;;;;;5.22;3.03;;;15.70;43.20;;;;;;4985342;28;20053;-83
2023/06/06 04:22:15;;;;;;;3.58;3.28;;;15.70;43.30;;;;;;4982090;28;20062;-84
2023/06/06 04:24:46;;;;;;;4.18;3.05;;;15.70;43.30;;;;;;4978912;28;20447;-84
2023/06/06 04:27:13;;;;;;;3.38;3.08;;;15.70;43.30;;;;;;4988220;28;20057;-84
2023/06/06 04:29:42;;;;;;;4.75;3.13;;;15.70;43.30;;;;;;4981156;28;20045;-83
2023/06/06 04:32:18;;;;;;;4.05;2.72;;;15.70;43.30;;;;;;4986209;28;20038;-83
2023/06/06 04:34:46;;;;;;;4.53;3.00;;;15.70;43.30;;;;;;4983594;28;20050;-82
2023/06/06 04:37:17;;;;;;;3.92;2.85;;;15.70;43.30;;;;;;4985472;28;20081;-83
2023/06/06 04:39:56;;;;;;;6.28;4.25;;;15.60;43.10;;;;;;4979177;28;20050;-85
2023/06/06 04:42:26;;;;;;;3.65;3.35;;;15.60;43.10;;;;;;4978725;28;20125;-86
2023/06/06 04:45:15;;;;;;;5.20;4.00;;;15.70;43.30;;;;;;4942450;28;20149;-84
2023/06/06 04:47:45;;;;;;;6.03;3.90;;;15.70;43.30;;;;;;4940240;28;20039;-85
2023/06/06 04:50:12;;;;;;;5.80;3.55;;;15.60;43.20;;;;;;4966180;28;20042;-86
2023/06/06 04:52:39;;;;;;;4.07;2.95;;;15.70;43.40;;;;;;4986588;28;20073;-86
2023/06/06 04:55:07;;;;;;;3.95;3.47;;;15.70;43.40;;;;;;4984972;28;20050;-84
2023/06/06 04:57:33;;;;;;;4.03;3.53;;;15.70;43.40;;;;;;4989114;28;20470;-84
2023/06/06 05:00:05;;;;;;;5.55;3.80;;;15.70;43.40;;;;;;4988177;28;20363;-84
2023/06/06 05:02:32;;;;;;;5.85;3.00;;;15.70;43.40;;;;;;4988528;28;20087;-85
2023/06/06 05:04:58;;;;;;;3.90;3.38;;;15.70;43.30;;;;;;4991944;28;20053;-84
2023/06/06 05:07:43;;;;;;;4.32;3.38;;;15.70;43.30;;;;;;4985593;28;20037;-84
2023/06/06 05:10:09;;;;;;;4.88;3.20;;;15.70;43.30;;;;;;4987610;28;20042;-85
2023/06/06 05:12:35;;;;;;;3.33;3.03;;;15.80;43.50;;;;;;4988299;28;20504;-87
2023/06/06 05:15:07;;;;;;;3.78;2.88;;;15.80;43.50;;;;;;4990025;28;20598;-85
2023/06/06 05:17:36;;;;;;;4.70;3.20;;;15.80;43.40;;;;;;4991830;28;20042;-85
2023/06/06 05:20:10;;;;;;;4.68;3.30;;;15.80;43.40;;;;;;4988012;28;20049;-84
2023/06/06 05:22:39;;;;;;;3.70;2.95;;;15.80;43.40;;;;;;4994116;28;20383;-85
2023/06/06 05:25:08;;;;;;;4.00;2.90;;;15.80;43.30;;;;;;4994929;28;20026;-84
2023/06/06 05:27:34;;;;;;;3.60;2.85;;;15.90;43.60;;;;;;4994461;28;20261;-85
2023/06/06 05:30:03;;;;;;;3.85;3.53;;;15.80;43.30;;;;;;5002470;28;20038;-84
2023/06/06 05:32:29;;;;;;;4.30;2.90;;;15.90;43.50;;;;;;4982458;28;20042;-85
2023/06/06 05:35:03;;;;;;;5.78;3.85;;;15.90;43.50;;;;;;4982340;28;20050;-84
2023/06/06 05:37:31;;;;;;;4.70;3.08;;;15.90;43.50;;;;;;4981366;28;20026;-82
2023/06/06 05:39:59;;;;;;;4.97;3.22;;;15.90;43.40;;;;;;4979446;28;20552;-87
2023/06/06 05:42:28;;;;;;;4.80;3.10;;;16.00;43.60;;;;;;4985231;28;20030;-81
2023/06/06 05:45:14;;;;;;;3.40;3.10;;;15.90;44.00;;;;;;4917100;28;20079;-81
2023/06/06 05:47:40;;;;;;;3.47;3.00;;;16.00;43.50;;;;;;4973155;28;20121;-80
2023/06/06 05:50:07;;;;;;;5.60;3.92;;;16.00;43.50;;;;;;4982444;28;20070;-85
2023/06/06 05:52:33;;;;;;;2.92;2.65;;;16.00;43.50;;;;;;4982116;28;20046;-90
2023/06/06 05:55:03;;;;;;;4.65;3.65;;;16.00;43.50;;;;;;4964742;28;20057;-85
2023/06/06 05:57:32;;;;;;;3.85;3.15;;;16.00;43.50;;;;;;4961785;28;20074;-81
2023/06/06 06:00:00;;;;;;;5.03;3.03;;;16.00;43.40;;;;;;4984137;28;20092;-81
2023/06/06 06:02:36;;;;;;;4.75;2.92;;;16.10;43.50;;;;;;4987450;28;20524;-83
2023/06/06 06:05:09;;;;;;;4.47;3.13;;;16.10;43.50;;;;;;4985567;28;20481;-84
2023/06/06 06:07:35;;;;;;;5.97;2.90;;;16.10;43.40;;;;;;4977307;28;20418;-86
2023/06/06 06:10:02;;;;;;;5.63;4.32;;;16.10;43.40;;;;;;4984037;28;20034;-85
2023/06/06 06:12:28;;;;;;;4.18;2.78;;;16.10;43.40;;;;;;4982676;28;20448;-84
2023/06/06 06:14:54;;;;;;;6.45;3.38;;;16.10;43.30;;;;;;4979270;28;20281;-88
2023/06/06 06:17:22;;;;;;;4.60;3.58;;;16.20;43.70;;;;;;4977603;28;20145;-91
2023/06/06 06:19:54;;;;;;;5.60;3.40;;;16.20;44.50;;;;;;4979966;28;20030;-85
2023/06/06 06:22:20;;;;;;;4.70;3.10;;;16.30;45.70;;;;;;4985958;28;20163;-85
2023/06/06 06:24:52;;;;;;;3.88;3.30;;;16.40;46.70;;;;;;4980852;28;20585;-88
2023/06/06 06:27:21;;;;;;;5.28;3.03;;;16.60;47.40;;;;;;4989957;28;20034;-88
2023/06/06 06:29:50;;;;;;;6.18;3.53;;;16.70;47.90;;;;;;4978084;28;20438;-83
2023/06/06 06:32:19;;;;;;;4.88;3.17;;;16.90;48.40;;;;;;4979793;28;20077;-84
2023/06/06 06:34:45;;;;;;;3.97;2.92;;;17.00;48.70;;;;;;4978621;28;20051;-80
2023/06/06 06:37:11;;;;;;;4.15;3.17;;;17.10;49.00;;;;;;4975035;28;20029;-84
2023/06/06 06:39:38;;;;;;;7.35;3.38;;;17.20;49.00;;;;;;4984585;28;20034;-85
2023/06/06 06:42:07;;;;;;;4.82;3.10;;;17.20;48.70;;;;;;5008878;28;20062;-82
2023/06/06 06:44:49;;;;;;;3.47;2.80;;;17.30;48.60;;;;;;4984420;28;20053;-82
2023/06/06 06:47:15;;;;;;;3.60;3.28;;;17.30;48.30;;;;;;4980870;28;20493;-88
2023/06/06 06:49:41;;;;;;;7.80;4.65;;;17.30;48.10;;;;;;4982920;28;20022;-84
2023/06/06 06:52:11;;;;;;;5.53;3.47;;;17.30;48.00;;;;;;4981774;28;20034;-84
2023/06/06 06:54:52;;;;;;;4.15;2.80;;;17.30;47.80;;;;;;4987727;28;20081;-85
2023/06/06 06:57:20;;;;;;;3.85;3.17;;;17.30;47.70;;;;;;4984142;28;20038;-85
2023/06/06 06:59:51;;;;;;;3.97;2.95;;;17.30;47.40;;;;;;4975069;28;20042;-84
2023/06/06 07:02:32;;;;;;;3.05;2.85;;;17.30;47.30;;;;;;4983926;28;20048;-83
2023/06/06 07:04:59;;;;;;;4.63;3.45;;;17.30;47.10;;;;;;4980557;28;20034;-86
2023/06/06 07:07:25;;;;;;;4.05;3.42;;;17.40;47.10;;;;;;4979029;28;20043;-84
2023/06/06 07:09:52;;;;;;;3.15;2.85;;;17.40;47.00;;;;;;4978013;28;20034;-85
2023/06/06 07:12:22;;;;;;;4.03;3.22;;;17.40;46.80;;;;;;4976832;28;20115;-85
2023/06/06 07:14:51;;;;;;;3.20;2.63;;;17.40;46.70;;;;;;4980841;28;20039;-82
2023/06/06 07:17:17;;;;;;;5.53;3.22;;;17.40;46.50;;;;;;4976505;28;20053;-89
2023/06/06 07:19:44;;;;;;;4.88;2.97;;;17.40;46.40;;;;;;4980077;28;20039;-87
2023/06/06 07:22:10;;;;;;;4.30;3.25;;;17.50;46.40;;;;;;4976232;28;20062;-83
2023/06/06 07:24:41;;;;;;;5.32;3.13;;;17.50;46.30;;;;;;4978552;28;20042;-83
2023/06/06 07:27:08;;;;;;;5.18;3.05;;;17.50;46.20;;;;;;4974826;28;20042;-86
2023/06/06 07:29:34;;;;;;;4.00;3.60;;;17.50;46.00;;;;;;4978593;28;20042;-88
2023/06/06 07:32:01;;;;;;;5.50;3.63;;;17.50;45.90;;;;;;4974018;28;20402;-88
2023/06/06 07:34:30;;;;;;;5.43;3.60;;;17.60;46.00;;;;;;4983637;28;20046;-89
2023/06/06 07:36:58;;;;;;;4.88;3.50;;;17.60;45.80;;;;;;4983018;28;20034;-88
2023/06/06 07:39:27;;;;;;;4.22;3.20;;;17.70;45.90;;;;;;4987179;28;20041;-87
2023/06/06 07:41:53;;;;;;;3.83;3.03;;;17.70;45.70;;;;;;4981016;28;20045;-88
2023/06/06 07:44:21;;;;;;;4.28;3.40;;;17.70;45.60;;;;;;4977976;28;20182;-88
2023/06/06 07:46:51;;;;;;;5.10;3.17;;;17.80;45.60;;;;;;4978837;28;20505;-84
2023/06/06 07:49:16;;;;;;;5.43;3.72;;;17.90;45.60;;;;;;4978699;28;20125;-89
2023/06/06 07:51:46;;;;;;;3.30;2.90;;;17.90;45.50;;;;;;4979458;28;20100;-86
2023/06/06 07:54:21;;;;;;;4.85;3.55;;;18.00;45.50;;;;;;4966765;28;20042;-87
2023/06/06 07:56:54;;;;;;;5.40;3.20;;;18.00;45.40;;;;;;4975734;28;20078;-82
2023/06/06 07:59:21;;;;;;;5.07;3.38;;;18.00;45.20;;;;;;4977010;28;20045;-84
2023/06/06 08:01:47;;;;;;;3.72;3.03;;;18.00;45.10;;;;;;4977452;28;20066;-84
2023/06/06 08:04:13;;;;;;;4.88;3.30;;;18.10;45.10;;;;;;4977746;28;20828;-84
2023/06/06 08:06:42;;;;;;;3.78;3.00;;;18.20;45.20;;;;;;4977554;28;20320;-86
2023/06/06 08:09:08;;;;;;;4.28;2.95;;;18.20;45.00;;;;;;4979046;28;20460;-86
2023/06/06 08:11:35;;;;;;;4.10;3.10;;;18.20;44.90;;;;;;4977292;28;20034;-86
2023/06/06 08:14:01;;;;;;;6.20;3.58;;;18.40;45.10;;;;;;4978419;28;20078;-85
2023/06/06 08:16:31;;;;;;;5.05;3.67;;;18.40;44.90;;;;;;4977094;28;20042;-87
2023/06/06 08:19:00;;;;;;;4.40;2.97;;;18.50;45.00;;;;;;4979953;28;20026;-88
2023/06/06 08:21:26;;;;;;;4.57;2.92;;;18.50;45.20;;;;;;4978776;28;20042;-88
2023/06/06 08:23:53;;;;;;;4.28;2.95;;;18.60;44.90;;;;;;4981518;28;20046;-88
2023/06/06 08:26:25;;;;;;;3.63;3.15;;;18.60;44.80;;;;;;4980307;28;20034;-88
2023/06/06 08:28:54;;;;;;;3.65;2.80;;;18.60;44.70;;;;;;4978247;28;20072;-89
2023/06/06 08:31:23;;;;;;;3.42;2.58;;;18.70;44.70;;;;;;4971910;28;20556;-88
2023/06/06 08:33:51;;;;;;;3.47;3.15;;;18.70;44.70;;;;;;4973097;28;20038;-89
2023/06/06 08:36:17;;;;;;;2.90;2.60;;;18.70;44.50;;;;;;4983365;28;20095;-88
2023/06/06 08:38:47;;;;;;;3.80;3.13;;;18.80;44.60;;;;;;4977862;28;20486;-86
2023/06/06 08:41:17;;;;;;;3.00;2.70;;;18.80;44.50;;;;;;4970514;28;20045;-88
2023/06/06 08:43:53;;;;;;;3.03;2.80;;;18.90;44.50;;;;;;4967696;28;20124;-87
2023/06/06 08:46:24;;;;;;;4.30;2.90;;;19.00;44.60;;;;;;4974362;28;20073;-84
2023/06/06 08:48:55;;;;;;;2.88;2.60;;;19.00;44.50;;;;;;4977338;28;20834;-87
2023/06/06 08:51:25;;;;;;;2.65;2.45;;;19.10;44.50;;;;;;4979939;28;20519;-88
2023/06/06 08:53:56;;;;;;;3.55;2.83;;;19.10;44.40;;;;;;4968687;28;20232;-89
2023/06/06 08:56:29;;;;;;;3.83;3.03;;;19.20;44.50;;;;;;4976975;28;20047;-89
2023/06/06 08:59:01;;;;;;;3.10;2.47;;;19.30;44.50;;;;;;4981062;28;20445;-89
2023/06/06 09:01:27;;;;;;;2.92;2.72;;;19.30;44.40;;;;;;4979643;28;20039;-88
2023/06/06 09:03:58;;;;;;;2.92;2.55;;;19.40;44.40;;;;;;4981649;28;20506;-89
2023/06/06 09:06:24;;;;;;;3.20;2.80;;;19.40;44.20;;;;;;4973488;28;20284;-88
2023/06/06 09:08:50;;;;;;;4.43;3.25;;;19.50;44.30;;;;;;4985961;28;20678;-89
2023/06/06 09:11:22;;;;;;;5.07;3.13;;;19.60;44.40;;;;;;4984031;28;20467;-87
2023/06/06 09:13:48;;;;;;;4.22;3.28;;;19.60;44.30;;;;;;4981343;28;20469;-88
2023/06/06 09:16:14;;;;;;;2.90;2.70;;;19.70;44.30;;;;;;4991507;28;20034;-85
2023/06/06 09:18:50;;;;;;;2.83;2.53;;;19.70;44.20;;;;;;4986287;28;20121;-89
2023/06/06 09:21:16;;;;;;;3.28;2.60;;;19.80;44.30;;;;;;4984027;28;20113;-88
2023/06/06 09:23:42;;;;;;;3.95;2.75;;;19.80;44.20;;;;;;4977710;28;20050;-84
2023/06/06 09:26:21;;;;;;;3.95;3.13;;;19.90;44.20;;;;;;4982055;28;20075;-88
2023/06/06 09:28:55;;;;;;;4.40;3.53;;;20.00;44.20;;;;;;4979655;28;20053;-85
2023/06/06 09:31:37;;;;;;;3.65;3.28;;;20.10;44.20;;;;;;4975081;28;20038;-89
2023/06/06 09:34:04;;;;;;;3.55;2.90;;;20.10;44.10;;;;;;4978526;28;20391;-89
2023/06/06 09:36:31;;;;;;;3.03;2.83;;;20.20;44.10;;;;;;4971997;28;20413;-89
2023/06/06 09:39:14;;;;;;;4.75;3.10;;;20.30;44.10;;;;;;4980208;28;20409;-89
2023/06/06 09:41:41;;;;;;;3.42;3.08;;;20.40;44.10;;;;;;4988068;28;20033;-88
2023/06/06 09:44:28;;;;;;;3.65;3.00;;;20.40;43.90;;;;;;4994904;28;20044;-87
2023/06/06 09:46:58;;;;;;;3.55;3.25;;;20.50;44.00;;;;;;4980178;28;20061;-88
2023/06/06 09:49:24;;;;;;;5.07;3.33;;;20.60;44.10;;;;;;4980874;28;20029;-88
2023/06/06 09:51:55;;;;;;;3.45;3.17;;;20.60;44.00;;;;;;4975758;28;20082;-88
2023/06/06 09:54:23;;;;;;;5.45;3.30;;;20.70;44.10;;;;;;4988608;28;20634;-88
2023/06/06 09:56:55;;;;;;;3.50;3.20;;;20.60;43.80;;;;;;4970423;28;20030;-87
2023/06/06 09:59:27;;;;;;;3.28;2.88;;;20.60;43.70;;;;;;4984621;28;20484;-87
2023/06/06 10:02:08;;;;;;;3.10;2.80;;;20.70;44.40;;;;;;4973686;28;21110;-89
2023/06/06 10:04:35;;;;;;;4.72;3.75;;;20.70;43.80;;;;;;4988064;28;20584;-87
2023/06/06 10:07:03;;;;;;;3.85;3.45;;;20.80;43.90;;;;;;4981961;28;20109;-90
2023/06/06 10:09:30;;;;;;;3.83;2.80;;;20.80;43.80;;;;;;4981336;28;20066;-86
2023/06/06 10:11:56;;;;;;;3.50;3.20;;;20.80;43.70;;;;;;4981067;28;20458;-85
2023/06/06 10:14:30;;;;;;;5.57;2.83;;;20.90;43.80;;;;;;4980125;28;20049;-85
2023/06/06 10:17:00;;;;;;;4.18;3.22;;;20.90;43.70;;;;;;4979368;28;20034;-87
2023/06/06 10:19:26;;;;;;;4.65;3.60;;;20.90;43.60;;;;;;4981932;28;20042;-87
2023/06/06 10:21:52;;;;;;;3.20;2.97;;;21.00;43.70;;;;;;4977300;28;20045;-87
2023/06/06 10:24:18;;;;;;;3.05;2.75;;;21.00;43.60;;;;;;4973043;28;20370;-86
2023/06/06 10:27:16;;;;;;;3.83;2.85;;;21.10;43.80;;;;;;4974406;28;20047;-86
2023/06/06 10:30:08;;;;;;;6.05;3.78;;;21.10;43.60;;;;;;4974737;28;20229;-88
2023/06/06 10:32:54;;;;;;;5.32;3.95;;;21.10;43.40;;;;;;4978745;28;20034;-88
2023/06/06 10:35:20;;;;;;;4.40;3.92;;;21.10;43.20;;;;;;4979881;28;20084;-82
2023/06/06 10:38:09;;;;;;;6.00;3.33;;;21.00;43.20;;;;;;4993482;28;20064;-81
2023/06/06 10:40:58;;;;;;;3.60;2.90;;;20.90;43.80;;;;;;4965958;28;20135;-81
2023/06/06 10:43:42;;;;;;;3.60;2.88;;;21.00;44.10;;;;;;4979548;28;20418;-82
2023/06/06 10:46:08;;;;;;;3.35;3.03;;;21.10;44.70;;;;;;4983333;28;20140;-81
2023/06/06 10:48:42;;;;;;;4.03;3.10;;;21.20;44.70;;;;;;4979573;28;20504;-82
2023/06/06 10:51:28;;;;;;;4.65;3.58;;;21.40;45.10;;;;;;4978236;28;20100;-81
2023/06/06 10:54:16;;;;;;;3.25;2.63;;;21.50;45.20;;;;;;4972658;28;20038;-82
2023/06/06 10:57:00;;;;;;;4.72;3.10;;;21.70;45.40;;;;;;4964204;28;20038;-85
2023/06/06 10:59:28;;;;;;;5.07;3.08;;;21.90;45.50;;;;;;4983803;28;20030;-87
2023/06/06 11:01:57;;;;;;;3.63;2.85;;;22.00;45.30;;;;;;4974604;28;20502;-83
2023/06/06 11:04:29;;;;;;;3.50;3.20;;;22.20;45.40;;;;;;4978683;28;20040;-84
2023/06/06 11:07:00;;;;;;;3.00;2.70;;;22.40;45.40;;;;;;4971644;28;20049;-82
2023/06/06 11:09:31;;;;;;;3.05;2.75;;;22.50;45.10;;;;;;4980604;28;20034;-82
2023/06/06 11:12:15;;;;;;;3.20;2.92;;;22.70;45.10;;;;;;4973566;28;20049;-84
2023/06/06 11:14:58;;;;;;;2.95;2.63;;;22.90;45.00;;;;;;4986674;28;20506;-87
2023/06/06 11:17:32;;;;;;;2.92;2.70;;;23.10;45.00;;;;;;4976680;28;20046;-87
2023/06/06 11:20:07;;;;;;;3.78;3.17;;;23.30;45.00;;;;;;4980286;28;20129;-89
2023/06/06 11:22:33;;;;;;;4.07;3.33;;;23.50;45.00;;;;;;4985734;28;20064;-84
2023/06/06 11:25:03;;;;;;;4.85;2.90;;;23.60;44.90;;;;;;4980397;28;20038;-81
2023/06/06 11:27:30;;;;;;;3.25;2.95;;;23.80;44.90;;;;;;4985087;28;20145;-86
2023/06/06 11:29:57;;;;;;;5.40;2.95;;;24.10;45.00;;;;;;4973362;28;20054;-87
2023/06/06 11:32:24;;;;;;;3.17;2.80;;;24.30;45.00;;;;;;4979049;28;20042;-87
2023/06/06 11:34:50;;;;;;;2.85;2.65;;;24.50;44.90;;;;;;4977640;28;20556;-86
2023/06/06 11:37:19;;;;;;;3.20;2.90;;;24.70;44.80;;;;;;4980144;28;20049;-88
2023/06/06 11:39:45;;;;;;;3.13;2.83;;;24.90;44.90;;;;;;4988583;28;20050;-87
2023/06/06 11:42:18;;;;;;;2.50;2.30;;;25.00;44.70;;;;;;4986957;28;20060;-88
2023/06/06 11:44:44;;;;;;;4.03;2.83;;;25.00;44.50;;;;;;4978666;28;20650;-88
2023/06/06 11:47:12;;;;;;;3.65;2.95;;;25.10;44.40;;;;;;4986835;28;20409;-87
2023/06/06 11:49:42;;;;;;;3.22;2.88;;;25.10;44.20;;;;;;4980429;28;20293;-87
2023/06/06 11:52:10;;;;;;;3.40;3.10;;;25.20;44.10;;;;;;4976189;28;20038;-87
2023/06/06 11:54:38;;;;;;;3.15;2.85;;;25.20;43.80;;;;;;4999506;28;20588;-86
2023/06/06 11:57:08;;;;;;;5.85;2.92;;;25.30;43.80;;;;;;4980622;28;20030;-86
2023/06/06 11:59:39;;;;;;;3.10;2.63;;;25.30;43.60;;;;;;4975679;28;20053;-84
2023/06/06 12:02:05;;;;;;;3.35;3.05;;;25.40;43.60;;;;;;4972912;28;20034;-85
2023/06/06 12:04:46;;;;;;;2.78;2.50;;;25.50;43.40;;;;;;4975979;28;20091;-85
2023/06/06 12:07:38;;;;;;;5.20;3.38;;;25.70;43.10;;;;;;4946980;28;20039;-85
2023/06/06 12:10:05;;;;;;;3.05;2.75;;;25.90;42.90;;;;;;4963369;28;20113;-86
2023/06/06 12:12:31;;;;;;;3.15;2.85;;;26.10;42.70;;;;;;4971184;28;20031;-88
2023/06/06 12:15:07;;;;;;;4.05;3.35;;;26.30;42.50;;;;;;4972859;28;20041;-82
2023/06/06 12:17:33;;;;;;;4.85;2.92;;;26.40;42.30;;;;;;4975780;28;20272;-83
2023/06/06 12:20:04;;;;;;;3.10;2.78;;;26.50;42.10;;;;;;4978267;28;20042;-86
2023/06/06 12:22:37;;;;;;;3.10;2.80;;;26.60;42.00;;;;;;4993113;28;20277;-86
2023/06/06 12:25:04;;;;;;;3.92;2.90;;;26.80;41.80;;;;;;4972281;28;20037;-85
2023/06/06 12:27:36;;;;;;;3.85;2.47;;;26.90;41.70;;;;;;4975866;28;20469;-86
2023/06/06 12:30:31;;;;;;;3.03;2.17;;;27.00;41.50;;;;;;4970362;28;20050;-85
2023/06/06 12:33:08;;;;;;;3.28;2.83;;;27.20;41.30;;;;;;4967177;28;20038;-82
2023/06/06 12:35:34;;;;;;;4.22;2.65;;;27.30;41.20;;;;;;4974728;28;20402;-86
2023/06/06 12:38:01;;;;;;;2.55;2.35;;;27.40;41.10;;;;;;4972596;28;20042;-85
2023/06/06 12:40:33;;;;;;;4.07;2.75;;;27.40;41.00;;;;;;4977053;28;20046;-87
2023/06/06 12:43:07;;;;;;;2.90;2.60;;;27.50;40.90;;;;;;4969920;28;20088;-87
2023/06/06 12:45:37;;;;;;;3.03;2.53;;;27.50;40.90;;;;;;4991800;28;20778;-87
2023/06/06 12:48:03;;;;;;;3.00;2.80;;;27.60;40.70;;;;;;4971875;28;20056;-87
2023/06/06 12:50:30;;;;;;;2.72;2.53;;;27.70;40.70;;;;;;4973297;28;20166;-87
2023/06/06 12:52:59;;;;;;;3.50;2.90;;;27.80;40.50;;;;;;4975595;28;20486;-88
2023/06/06 12:55:26;;;;;;;3.05;2.75;;;27.90;40.30;;;;;;4978949;28;20287;-89
2023/06/06 12:57:52;;;;;;;2.80;2.60;;;28.00;40.20;;;;;;4977469;28;20034;-88
2023/06/06 13:00:19;;;;;;;3.10;2.83;;;28.10;40.10;;;;;;4970222;28;20845;-88
2023/06/06 13:02:45;;;;;;;4.63;2.63;;;28.10;39.90;;;;;;4972406;28;20201;-87
2023/06/06 13:05:11;;;;;;;3.90;3.28;;;28.20;39.80;;;;;;4975029;28;20038;-90